createdAt,value
2018-07-24T00:00:51.146Z,95550.00
2018-07-24T00:03:22.819Z,95552.00
2018-07-24T00:05:54.554Z,95553.00
2018-07-24T00:08:25.887Z,95548.00
2018-07-24T00:10:57.438Z,95553.00
2018-07-24T00:13:29.239Z,95549.00
2018-07-24T00:16:00.959Z,95555.00
2018-07-24T00:18:32.699Z,95553.00
2018-07-24T00:21:04.545Z,95551.00
2018-07-24T00:23:36.537Z,95551.00
2018-07-24T00:26:08.252Z,95551.00
2018-07-24T00:28:39.726Z,95543.00
2018-07-24T00:31:11.262Z,95541.00
2018-07-24T00:33:43.022Z,95543.00
2018-07-24T00:36:14.799Z,95541.00
2018-07-24T00:38:46.629Z,95534.00
2018-07-24T00:41:18.281Z,95530.00
2018-07-24T00:43:50.039Z,95525.00
2018-07-24T00:46:21.726Z,95531.00
2018-07-24T00:48:53.398Z,95525.00
2018-07-24T00:51:25.038Z,95527.00
2018-07-24T00:53:56.756Z,95527.00
2018-07-24T00:56:28.430Z,95526.00
2018-07-24T00:59:00.119Z,95520.00
2018-07-24T01:01:31.761Z,95521.00
2018-07-24T01:04:03.558Z,95518.00
2018-07-24T01:06:35.259Z,95513.00
2018-07-24T01:09:10.542Z,95507.00
2018-07-24T01:11:41.998Z,95509.00
2018-07-24T01:14:13.900Z,95510.00
2018-07-24T01:16:45.639Z,95513.00
2018-07-24T01:19:17.358Z,95513.00
2018-07-24T01:21:48.619Z,95508.00
2018-07-24T01:24:20.111Z,95505.00
2018-07-24T01:26:51.766Z,95509.00
2018-07-24T01:29:23.006Z,95515.00
2018-07-24T01:31:54.461Z,95517.00
2018-07-24T01:34:26.159Z,95512.00
2018-07-24T01:36:57.430Z,95508.00
2018-07-24T01:39:28.678Z,95508.00
2018-07-24T01:42:00.178Z,95510.00
2018-07-24T01:44:31.901Z,95510.00
2018-07-24T01:47:03.968Z,95504.00
2018-07-24T01:49:35.781Z,95507.00
2018-07-24T01:52:07.116Z,95510.00
2018-07-24T01:54:38.646Z,95509.00
2018-07-24T01:57:10.401Z,95510.00
2018-07-24T01:59:42.158Z,95503.00
2018-07-24T02:02:13.712Z,95509.00
2018-07-24T02:04:45.498Z,95504.00
2018-07-24T02:07:17.663Z,95501.00
2018-07-24T02:09:49.968Z,95506.00
2018-07-24T02:12:22.109Z,95507.00
2018-07-24T02:14:54.215Z,95506.00
2018-07-24T02:17:26.203Z,95509.00
2018-07-24T02:19:58.466Z,95503.00
2018-07-24T02:22:30.579Z,95500.00
2018-07-24T02:25:02.691Z,95503.00
2018-07-24T02:27:34.780Z,95501.00
2018-07-24T02:30:08.535Z,95503.00
2018-07-24T02:32:40.650Z,95504.00
2018-07-24T02:35:12.880Z,95508.00
2018-07-24T02:37:44.939Z,95510.00
2018-07-24T02:40:16.704Z,95510.00
2018-07-24T02:42:48.418Z,95507.00
2018-07-24T02:45:20.243Z,95509.00
2018-07-24T02:47:51.998Z,95507.00
2018-07-24T02:50:23.739Z,95502.00
2018-07-24T02:52:55.418Z,95507.00
2018-07-24T02:55:27.189Z,95502.00
2018-07-24T02:57:58.882Z,95504.00
2018-07-24T03:00:30.130Z,95503.00
2018-07-24T03:03:01.667Z,95500.00
2018-07-24T03:05:33.370Z,95502.00
2018-07-24T03:08:04.586Z,95502.00
2018-07-24T03:10:36.233Z,95504.00
2018-07-24T03:13:07.463Z,95505.00
2018-07-24T03:15:39.014Z,95505.00
2018-07-24T03:18:10.782Z,95512.00
2018-07-24T03:20:42.529Z,95510.00
2018-07-24T03:23:14.242Z,95510.00
2018-07-24T03:25:46.006Z,95507.00
2018-07-24T03:28:17.745Z,95507.00
2018-07-24T03:30:49.007Z,95502.00
2018-07-24T03:33:20.020Z,95500.00
2018-07-24T03:35:51.594Z,95496.00
2018-07-24T03:38:23.450Z,95491.00
2018-07-24T03:40:55.166Z,95494.00
2018-07-24T03:43:26.838Z,95499.00
2018-07-24T03:45:58.570Z,95497.00
2018-07-24T03:48:30.337Z,95500.00
2018-07-24T03:51:02.123Z,95505.00
2018-07-24T03:53:33.886Z,95500.00
2018-07-24T03:56:06.004Z,95502.00
2018-07-24T03:58:37.654Z,95503.00
2018-07-24T04:01:09.213Z,95509.00
2018-07-24T04:03:40.695Z,95507.00
2018-07-24T04:06:12.034Z,95507.00
2018-07-24T04:08:43.503Z,95508.00
2018-07-24T04:11:14.842Z,95509.00
2018-07-24T04:13:46.284Z,95513.00
2018-07-24T04:16:17.702Z,95511.00
2018-07-24T04:18:50.082Z,95515.00
2018-07-24T04:21:21.850Z,95516.00
2018-07-24T04:23:53.104Z,95512.00
2018-07-24T04:26:24.601Z,95511.00
2018-07-24T04:28:56.258Z,95502.00
2018-07-24T04:31:28.122Z,95507.00
2018-07-24T04:33:59.842Z,95507.00
2018-07-24T04:36:31.664Z,95511.00
2018-07-24T04:39:03.385Z,95506.00
2018-07-24T04:41:35.179Z,95505.00
2018-07-24T04:44:07.622Z,95507.00
2018-07-24T04:46:39.362Z,95505.00
2018-07-24T04:49:11.085Z,95508.00
2018-07-24T04:51:42.851Z,95505.00
2018-07-24T04:54:14.780Z,95500.00
2018-07-24T04:56:46.596Z,95500.00
2018-07-24T04:59:18.283Z,95502.00
2018-07-24T05:01:50.004Z,95495.00
2018-07-24T05:04:21.278Z,95494.00
2018-07-24T05:06:52.748Z,95495.00
2018-07-24T05:09:24.465Z,95499.00
2018-07-24T05:11:55.970Z,95500.00
2018-07-24T05:14:27.485Z,95493.00
2018-07-24T05:16:59.228Z,95494.00
2018-07-24T05:19:30.905Z,95499.00
2018-07-24T05:22:02.652Z,95497.00
2018-07-24T05:24:34.280Z,95496.00
2018-07-24T05:27:05.671Z,95495.00
2018-07-24T05:29:37.128Z,95499.00
2018-07-24T05:32:09.142Z,95505.00
2018-07-24T05:34:41.520Z,95497.00
2018-07-24T05:37:13.264Z,95493.00
2018-07-24T05:39:44.630Z,95498.00
2018-07-24T05:42:16.224Z,95497.00
2018-07-24T05:44:47.605Z,95497.00
2018-07-24T05:47:19.236Z,95498.00
2018-07-24T05:49:50.884Z,95494.00
2018-07-24T05:52:22.677Z,95492.00
2018-07-24T05:54:54.454Z,95489.00
2018-07-24T05:57:26.327Z,95486.00
2018-07-24T05:59:58.084Z,95485.00
2018-07-24T06:02:29.804Z,95482.00
2018-07-24T06:05:01.523Z,95485.00
2018-07-24T06:07:33.390Z,95483.00
2018-07-24T06:10:05.211Z,95478.00
2018-07-24T06:12:36.509Z,95486.00
2018-07-24T06:15:09.333Z,95481.00
2018-07-24T06:17:41.164Z,95483.00
2018-07-24T06:20:14.207Z,95480.00
2018-07-24T06:22:46.678Z,95480.00
2018-07-24T06:25:18.618Z,95478.00
2018-07-24T06:27:50.355Z,95480.00
2018-07-24T06:30:22.122Z,95477.00
2018-07-24T06:32:53.935Z,95481.00
2018-07-24T06:35:25.667Z,95473.00
2018-07-24T06:37:57.382Z,95471.00
2018-07-24T06:40:28.701Z,95469.00
2018-07-24T06:43:00.261Z,95462.00
2018-07-24T06:45:31.918Z,95459.00
2018-07-24T06:48:03.639Z,95455.00
2018-07-24T06:50:35.338Z,95454.00
2018-07-24T06:53:07.166Z,95445.00
2018-07-24T06:55:38.919Z,95456.00
2018-07-24T06:58:10.756Z,95450.00
2018-07-24T07:00:42.545Z,95447.00
2018-07-24T07:03:14.329Z,95451.00
2018-07-24T07:05:45.644Z,95452.00
2018-07-24T07:08:17.181Z,95454.00
2018-07-24T07:10:49.004Z,95453.00
2018-07-24T07:13:20.897Z,95461.00
2018-07-24T07:15:52.662Z,95455.00
2018-07-24T07:18:24.441Z,95449.00
2018-07-24T07:20:56.219Z,95452.00
2018-07-24T07:23:28.028Z,95450.00
2018-07-24T07:26:00.082Z,95447.00
2018-07-24T07:28:31.907Z,95448.00
2018-07-24T07:31:03.715Z,95443.00
2018-07-24T07:33:35.522Z,95437.00
2018-07-24T07:36:07.442Z,95435.00
2018-07-24T07:38:39.258Z,95430.00
2018-07-24T07:41:11.033Z,95430.00
2018-07-24T07:43:42.804Z,95422.00
2018-07-24T07:46:14.499Z,95418.00
2018-07-24T07:48:45.813Z,95414.00
2018-07-24T07:51:17.331Z,95415.00
2018-07-24T07:53:48.618Z,95414.00
2018-07-24T07:56:19.723Z,95407.00
2018-07-24T07:58:50.879Z,95403.00
2018-07-24T08:01:22.445Z,95398.00
2018-07-24T08:03:54.191Z,95395.00
2018-07-24T08:06:25.518Z,95396.00
2018-07-24T08:08:57.210Z,95391.00
2018-07-24T08:11:29.074Z,95389.00
2018-07-24T08:14:00.938Z,95387.00
2018-07-24T08:16:32.682Z,95380.00
2018-07-24T08:19:04.621Z,95379.00
2018-07-24T08:21:36.367Z,95379.00
2018-07-24T08:24:08.223Z,95374.00
2018-07-24T08:26:39.760Z,95369.00
2018-07-24T08:29:11.290Z,95366.00
2018-07-24T08:31:42.823Z,95362.00
2018-07-24T08:34:14.606Z,95355.00
2018-07-24T08:36:46.328Z,95362.00
2018-07-24T08:39:18.105Z,95354.00
2018-07-24T08:41:49.828Z,95354.00
2018-07-24T08:44:21.761Z,95352.00
2018-07-24T08:46:53.651Z,95353.00
2018-07-24T08:49:25.414Z,95352.00
2018-07-24T08:51:56.817Z,95350.00
2018-07-24T08:54:28.155Z,95353.00
2018-07-24T08:56:59.536Z,95352.00
2018-07-24T08:59:31.502Z,95349.00
2018-07-24T09:02:03.279Z,95346.00
2018-07-24T09:04:35.094Z,95343.00
2018-07-24T09:07:06.885Z,95342.00
2018-07-24T09:09:38.702Z,95336.00
2018-07-24T09:12:10.444Z,95333.00
2018-07-24T09:14:42.405Z,95328.00
2018-07-24T09:17:13.942Z,95324.00
2018-07-24T09:19:45.231Z,95320.00
2018-07-24T09:22:16.730Z,95316.00
2018-07-24T09:24:48.474Z,95313.00
2018-07-24T09:27:20.308Z,95310.00
2018-07-24T09:29:52.121Z,95306.00
2018-07-24T09:32:24.225Z,95300.00
2018-07-24T09:34:55.965Z,95297.00
2018-07-24T09:37:27.712Z,95301.00
2018-07-24T09:39:59.543Z,95294.00
2018-07-24T09:42:30.807Z,95287.00
2018-07-24T09:45:02.379Z,95285.00
2018-07-24T09:47:34.163Z,95281.00
2018-07-24T09:50:06.905Z,95282.00
2018-07-24T09:52:38.612Z,95273.00
2018-07-24T09:55:10.423Z,95268.00
2018-07-24T09:57:42.266Z,95268.00
2018-07-24T10:00:14.136Z,95258.00
2018-07-24T10:02:45.842Z,95255.00
2018-07-24T10:05:17.742Z,95258.00
2018-07-24T10:07:49.469Z,95259.00
2018-07-24T10:10:21.259Z,95251.00
2018-07-24T10:12:53.038Z,95246.00
2018-07-24T10:15:24.866Z,95245.00
2018-07-24T10:17:56.639Z,95242.00
2018-07-24T10:20:28.435Z,95241.00
2018-07-24T10:23:00.093Z,95238.00
2018-07-24T10:25:31.859Z,95231.00
2018-07-24T10:28:03.552Z,95231.00
2018-07-24T10:30:35.323Z,95228.00
2018-07-24T10:33:07.285Z,95224.00
2018-07-24T10:35:39.099Z,95222.00
2018-07-24T10:38:10.813Z,95225.00
2018-07-24T10:40:42.729Z,95214.00
2018-07-24T10:43:14.519Z,95212.00
2018-07-24T10:45:46.232Z,95203.00
2018-07-24T10:48:17.522Z,95203.00
2018-07-24T10:50:49.227Z,95201.00
2018-07-24T10:53:21.142Z,95197.00
2018-07-24T10:55:52.932Z,95192.00
2018-07-24T10:58:24.582Z,95186.00
2018-07-24T11:00:56.453Z,95182.00
2018-07-24T11:03:28.235Z,95183.00
2018-07-24T11:06:00.073Z,95176.00
2018-07-24T11:08:31.830Z,95178.00
2018-07-24T11:11:03.710Z,95167.00
2018-07-24T11:13:35.470Z,95169.00
2018-07-24T11:16:07.302Z,95168.00
2018-07-24T11:18:39.055Z,95161.00
2018-07-24T11:21:10.876Z,95156.00
2018-07-24T11:23:42.539Z,95157.00
2018-07-24T11:26:14.338Z,95148.00
2018-07-24T11:28:45.991Z,95146.00
2018-07-24T11:31:17.754Z,95139.00
2018-07-24T11:33:49.530Z,95142.00
2018-07-24T11:36:21.434Z,95133.00
2018-07-24T11:38:53.041Z,95131.00
2018-07-24T11:41:24.861Z,95130.00
2018-07-24T11:43:56.522Z,95122.00
2018-07-24T11:46:28.296Z,95120.00
2018-07-24T11:49:00.617Z,95114.00
2018-07-24T11:51:32.485Z,95114.00
2018-07-24T11:54:04.224Z,95115.00
2018-07-24T11:56:36.073Z,95107.00
2018-07-24T11:59:07.799Z,95113.00
2018-07-24T12:01:39.573Z,95106.00
2018-07-24T12:04:11.211Z,95103.00
2018-07-24T12:06:42.939Z,95099.00
2018-07-24T12:09:14.839Z,95106.00
2018-07-24T12:11:46.550Z,95102.00
2018-07-24T12:14:18.202Z,95096.00
2018-07-24T12:16:50.464Z,95093.00
2018-07-24T12:19:22.584Z,95094.00
2018-07-24T12:21:54.737Z,95095.00
2018-07-24T12:24:26.857Z,95094.00
2018-07-24T12:26:59.028Z,95091.00
2018-07-24T12:29:31.038Z,95083.00
2018-07-24T12:32:03.250Z,95087.00
2018-07-24T12:34:34.940Z,95081.00
2018-07-24T12:37:06.839Z,95084.00
2018-07-24T12:39:38.066Z,95082.00
2018-07-24T12:42:09.706Z,95080.00
2018-07-24T12:44:41.455Z,95081.00
2018-07-24T12:47:13.364Z,95072.00
2018-07-24T12:49:44.595Z,95071.00
2018-07-24T12:52:16.179Z,95071.00
2018-07-24T12:54:48.383Z,95067.00
2018-07-24T12:57:20.455Z,95061.00
2018-07-24T12:59:52.191Z,95062.00
2018-07-24T13:02:24.086Z,95061.00
2018-07-24T13:04:55.917Z,95056.00
2018-07-24T13:07:28.185Z,95060.00
2018-07-24T13:09:59.900Z,95057.00
2018-07-24T13:12:31.685Z,95049.00
2018-07-24T13:15:03.351Z,95049.00
2018-07-24T13:17:35.095Z,95048.00
2018-07-24T13:20:06.826Z,95047.00
2018-07-24T13:22:38.531Z,95044.00
2018-07-24T13:25:10.198Z,95045.00
2018-07-24T13:27:41.932Z,95041.00
2018-07-24T13:30:13.667Z,95041.00
2018-07-24T13:32:45.133Z,95035.00
2018-07-24T13:35:16.710Z,95032.00
2018-07-24T13:38:10.933Z,95032.00
2018-07-24T13:40:42.912Z,95035.00
2018-07-24T13:43:14.898Z,95035.00
2018-07-24T13:45:46.701Z,95042.00
2018-07-24T13:48:18.529Z,95037.00
2018-07-24T13:50:50.460Z,95028.00
2018-07-24T13:53:22.301Z,95032.00
2018-07-24T13:55:54.093Z,95026.00
2018-07-24T13:58:26.323Z,95027.00
2018-07-24T14:00:58.164Z,95029.00
2018-07-24T14:03:29.982Z,95024.00
2018-07-24T14:06:01.937Z,95024.00
2018-07-24T14:08:34.122Z,95029.00
2018-07-24T14:11:06.118Z,95027.00
2018-07-24T14:13:39.232Z,95028.00
2018-07-24T14:16:11.062Z,95025.00
2018-07-24T14:18:42.950Z,95028.00
2018-07-24T14:21:14.701Z,95027.00
2018-07-24T14:23:46.487Z,95036.00
2018-07-24T14:26:19.388Z,95031.00
2018-07-24T14:28:51.262Z,95027.00
2018-07-24T14:31:23.323Z,95020.00
2018-07-24T14:33:56.110Z,95021.00
2018-07-24T14:36:28.146Z,95020.00
2018-07-24T14:39:00.251Z,95019.00
2018-07-24T14:41:32.110Z,95018.00
2018-07-24T14:44:03.910Z,95017.00
2018-07-24T14:46:35.819Z,95017.00
2018-07-24T14:49:07.714Z,95016.00
2018-07-24T14:51:39.079Z,95011.00
2018-07-24T14:54:11.044Z,95008.00
2018-07-24T14:56:43.092Z,95009.00
2018-07-24T14:59:18.153Z,95011.00
2018-07-24T15:01:50.389Z,95014.00
2018-07-24T15:04:22.326Z,95008.00
2018-07-24T15:06:54.934Z,95007.00
2018-07-24T15:09:28.757Z,95016.00
2018-07-24T15:12:00.553Z,95015.00
2018-07-24T15:14:32.457Z,95015.00
2018-07-24T15:17:04.858Z,95017.00
2018-07-24T15:19:37.069Z,95021.00
2018-07-24T15:22:09.150Z,95014.00
2018-07-24T15:24:41.378Z,95014.00
2018-07-24T15:27:13.226Z,95010.00
2018-07-24T15:29:45.354Z,95010.00
2018-07-24T15:32:17.203Z,95009.00
2018-07-24T15:34:49.095Z,95010.00
2018-07-24T15:37:20.914Z,95006.00
2018-07-24T15:39:52.974Z,95002.00
2018-07-24T15:42:24.932Z,95009.00
2018-07-24T15:44:56.808Z,95006.00
2018-07-24T15:47:29.167Z,95004.00
2018-07-24T15:50:01.112Z,94998.00
2018-07-24T15:52:32.976Z,95002.00
2018-07-24T15:55:05.171Z,94999.00
2018-07-24T15:57:37.038Z,94999.00
2018-07-24T16:00:09.462Z,94997.00
2018-07-24T16:02:41.419Z,94993.00
2018-07-24T16:05:13.305Z,95000.00
2018-07-24T16:07:45.246Z,94997.00
2018-07-24T16:10:17.545Z,94998.00
2018-07-24T16:12:49.572Z,94997.00
2018-07-24T16:15:21.593Z,94996.00
2018-07-24T16:17:53.473Z,94996.00
2018-07-24T16:20:25.495Z,94995.00
2018-07-24T16:22:57.480Z,94999.00
2018-07-24T16:25:29.639Z,95000.00
2018-07-24T16:28:02.346Z,95001.00
2018-07-24T16:30:34.326Z,94999.00
2018-07-24T16:33:06.459Z,94995.00
2018-07-24T16:35:38.770Z,94999.00
2018-07-24T16:38:13.524Z,94996.00
2018-07-24T16:40:45.463Z,95001.00
2018-07-24T16:43:17.125Z,94992.00
2018-07-24T16:45:49.148Z,95002.00
2018-07-24T16:48:21.072Z,95011.00
2018-07-24T16:50:53.127Z,95012.00
2018-07-24T16:53:25.312Z,95014.00
2018-07-24T16:55:57.352Z,95014.00
2018-07-24T16:58:29.480Z,95013.00
2018-07-24T17:01:02.153Z,95020.00
2018-07-24T17:03:33.963Z,95017.00
2018-07-24T17:06:05.866Z,95016.00
2018-07-24T17:08:38.282Z,95016.00
2018-07-24T17:11:10.646Z,95011.00
2018-07-24T17:13:43.718Z,95009.00
2018-07-24T17:16:16.057Z,95022.00
2018-07-24T17:18:48.002Z,95026.00
2018-07-24T17:21:20.118Z,95026.00
2018-07-24T17:23:52.015Z,95026.00
2018-07-24T17:26:23.988Z,95023.00
2018-07-24T17:28:55.814Z,95026.00
2018-07-24T17:31:27.741Z,95024.00
2018-07-24T17:33:59.615Z,95026.00
2018-07-24T17:36:34.102Z,95024.00
2018-07-24T17:39:09.056Z,95023.00
2018-07-24T17:41:41.391Z,95024.00
2018-07-24T17:44:13.645Z,95027.00
2018-07-24T17:46:45.747Z,95034.00
2018-07-24T17:49:18.093Z,95033.00
2018-07-24T17:51:50.421Z,95036.00
2018-07-24T17:54:23.620Z,95034.00
2018-07-24T17:56:55.676Z,95042.00
2018-07-24T17:59:28.030Z,95041.00
2018-07-24T18:02:00.153Z,95041.00
2018-07-24T18:04:32.183Z,95047.00
2018-07-24T18:07:04.562Z,95041.00
2018-07-24T18:09:36.621Z,95049.00
2018-07-24T18:12:09.052Z,95055.00
2018-07-24T18:14:40.459Z,95054.00
2018-07-24T18:17:12.387Z,95055.00
2018-07-24T18:19:44.272Z,95054.00
2018-07-24T18:22:16.144Z,95058.00
2018-07-24T18:24:48.317Z,95058.00
2018-07-24T18:27:20.216Z,95060.00
2018-07-24T18:29:52.856Z,95060.00
2018-07-24T18:32:26.575Z,95064.00
2018-07-24T18:34:58.662Z,95065.00
2018-07-24T18:37:31.562Z,95066.00
2018-07-24T18:40:03.513Z,95066.00
2018-07-24T18:42:35.521Z,95069.00
2018-07-24T18:45:08.666Z,95065.00
2018-07-24T18:47:40.581Z,95063.00
2018-07-24T18:50:12.797Z,95061.00
2018-07-24T18:52:44.963Z,95075.00
2018-07-24T18:55:17.651Z,95077.00
2018-07-24T18:57:49.786Z,95078.00
2018-07-24T19:00:21.822Z,95082.00
2018-07-24T19:02:54.092Z,95082.00
2018-07-24T19:05:26.852Z,95085.00
2018-07-24T19:07:59.929Z,95087.00
2018-07-24T19:10:31.901Z,95090.00
2018-07-24T19:13:03.377Z,95087.00
2018-07-24T19:15:36.294Z,95093.00
2018-07-24T19:18:08.645Z,95092.00
2018-07-24T19:20:41.230Z,95096.00
2018-07-24T19:23:13.218Z,95099.00
2018-07-24T19:25:46.726Z,95107.00
2018-07-24T19:28:18.663Z,95109.00
2018-07-24T19:30:52.311Z,95110.00
2018-07-24T19:33:24.547Z,95115.00
2018-07-24T19:35:56.497Z,95116.00
2018-07-24T19:38:30.365Z,95120.00
2018-07-24T19:41:02.345Z,95123.00
2018-07-24T19:43:34.306Z,95126.00
2018-07-24T19:46:07.337Z,95128.00
2018-07-24T19:48:39.340Z,95135.00
2018-07-24T19:51:11.407Z,95135.00
2018-07-24T19:53:43.588Z,95138.00
2018-07-24T19:56:15.477Z,95137.00
2018-07-24T19:58:48.872Z,95147.00
2018-07-24T20:01:20.857Z,95150.00
2018-07-24T20:03:53.504Z,95151.00
2018-07-24T20:06:25.790Z,95148.00
2018-07-24T20:08:57.736Z,95157.00
2018-07-24T20:11:29.866Z,95155.00
2018-07-24T20:14:02.161Z,95160.00
2018-07-24T20:16:34.133Z,95162.00
2018-07-24T20:19:06.522Z,95162.00
2018-07-24T20:21:39.081Z,95165.00
2018-07-24T20:24:11.034Z,95165.00
2018-07-24T20:26:43.544Z,95171.00
2018-07-24T20:29:16.045Z,95176.00
2018-07-24T20:31:48.014Z,95173.00
2018-07-24T20:34:21.625Z,95168.00
2018-07-24T20:36:53.525Z,95172.00
2018-07-24T20:39:27.869Z,95174.00
2018-07-24T20:41:59.988Z,95173.00
2018-07-24T20:44:32.114Z,95177.00
2018-07-24T20:47:03.949Z,95182.00
2018-07-24T20:49:35.906Z,95179.00
2018-07-24T20:52:09.934Z,95180.00
2018-07-24T20:54:42.454Z,95185.00
2018-07-24T20:57:14.640Z,95182.00
2018-07-24T20:59:46.787Z,95185.00
2018-07-24T21:02:18.681Z,95186.00
2018-07-24T21:04:50.807Z,95188.00
2018-07-24T21:07:22.634Z,95188.00
2018-07-24T21:09:54.697Z,95192.00
2018-07-24T21:12:26.515Z,95197.00
2018-07-24T21:14:58.361Z,95199.00
2018-07-24T21:17:30.253Z,95202.00
2018-07-24T21:20:02.574Z,95202.00
2018-07-24T21:22:34.465Z,95203.00
2018-07-24T21:25:06.742Z,95193.00
2018-07-24T21:27:39.234Z,95201.00
2018-07-24T21:30:11.514Z,95209.00
2018-07-24T21:32:43.930Z,95207.00
2018-07-24T21:35:15.794Z,95208.00
2018-07-24T21:37:48.056Z,95205.00
2018-07-24T21:40:19.926Z,95212.00
2018-07-24T21:42:52.000Z,95207.00
2018-07-24T21:45:23.914Z,95210.00
2018-07-24T21:47:55.838Z,95217.00
2018-07-24T21:50:30.433Z,95220.00
2018-07-24T21:53:02.370Z,95223.00
2018-07-24T21:55:34.371Z,95224.00
2018-07-24T21:58:06.195Z,95226.00
2018-07-24T22:00:38.656Z,95226.00
2018-07-24T22:03:10.665Z,95226.00
2018-07-24T22:05:42.496Z,95226.00
2018-07-24T22:08:14.290Z,95226.00
2018-07-24T22:10:46.830Z,95227.00
2018-07-24T22:13:18.649Z,95230.00
2018-07-24T22:15:50.530Z,95229.00
2018-07-24T22:18:22.370Z,95228.00
2018-07-24T22:20:54.431Z,95235.00
2018-07-24T22:23:26.225Z,95231.00
2018-07-24T22:25:58.205Z,95233.00
2018-07-24T22:28:30.011Z,95233.00
2018-07-24T22:31:01.954Z,95237.00
2018-07-24T22:33:33.801Z,95237.00
2018-07-24T22:36:05.801Z,95242.00
2018-07-24T22:38:37.584Z,95235.00
2018-07-24T22:41:09.472Z,95242.00
2018-07-24T22:43:41.269Z,95234.00
2018-07-24T22:46:13.102Z,95233.00
2018-07-24T22:48:44.868Z,95235.00
2018-07-24T22:51:16.753Z,95237.00
2018-07-24T22:53:48.549Z,95232.00
2018-07-24T22:56:20.727Z,95233.00
2018-07-24T22:58:52.521Z,95231.00
2018-07-24T23:01:24.410Z,95227.00
2018-07-24T23:03:57.302Z,95238.00
2018-07-24T23:06:29.138Z,95239.00
2018-07-24T23:09:00.912Z,95240.00
2018-07-24T23:11:32.564Z,95242.00
2018-07-24T23:14:04.174Z,95243.00
2018-07-24T23:16:36.122Z,95239.00
2018-07-24T23:19:07.929Z,95242.00
2018-07-24T23:21:39.854Z,95239.00
2018-07-24T23:24:11.749Z,95237.00
2018-07-24T23:26:45.249Z,95236.00
2018-07-24T23:29:17.081Z,95233.00
2018-07-24T23:31:55.633Z,95240.00
2018-07-24T23:34:27.489Z,95229.00
2018-07-24T23:36:59.401Z,95242.00
2018-07-24T23:39:32.122Z,95237.00
2018-07-24T23:42:03.938Z,95235.00
2018-07-24T23:44:35.742Z,95238.00
2018-07-24T23:47:07.662Z,95240.00
2018-07-24T23:49:39.449Z,95236.00
2018-07-24T23:52:11.312Z,95235.00
2018-07-24T23:54:43.121Z,95236.00
2018-07-24T23:57:15.038Z,95239.00
2018-07-24T23:59:46.814Z,95242.00
